Time;durP1;ratioP1;P1;durP2;ratioP2;P2;SDS_P1;SDS_P2;PMS_P1;PMS_P2;Temp;Humidity;BMP_temperature;BMP_pressure;BME280_temperature;BME280_humidity;BME280_pressure;Samples;Min_cycle;Max_cycle;Signal;HPM_P1;HPM_P2
2021/10/08 00:00:43;;;;;;;53.80;33.73;;;11.50;99.90;;;;;;4901857;29;20210;-89
2021/10/08 00:03:10;;;;;;;55.13;35.17;;;11.50;99.90;;;;;;4915032;29;20218;-89
2021/10/08 00:05:36;;;;;;;48.10;31.70;;;11.50;99.90;;;;;;4914783;29;20214;-89
2021/10/08 00:08:04;;;;;;;46.73;28.97;;;11.40;99.90;;;;;;4914782;29;20237;-88
2021/10/08 00:10:31;;;;;;;46.97;30.10;;;11.40;99.90;;;;;;4914900;29;20199;-88
2021/10/08 00:12:58;;;;;;;40.87;27.73;;;11.40;99.90;;;;;;4914851;29;20214;-88
2021/10/08 00:15:27;;;;;;;42.20;27.80;;;11.40;99.90;;;;;;4914612;29;20202;-88
2021/10/08 00:17:54;;;;;;;39.37;26.23;;;11.30;99.90;;;;;;4917188;29;20302;-88
2021/10/08 00:20:21;;;;;;;41.80;26.37;;;11.30;99.90;;;;;;4918458;29;20226;-89
2021/10/08 00:22:48;;;;;;;43.50;28.40;;;11.20;99.90;;;;;;4910693;29;20210;-87
2021/10/08 00:25:15;;;;;;;38.50;26.03;;;11.20;99.90;;;;;;4899923;29;20808;-89
2021/10/08 00:27:41;;;;;;;47.47;30.67;;;11.20;99.90;;;;;;4899169;29;20529;-89
2021/10/08 00:30:09;;;;;;;50.77;31.87;;;11.20;99.90;;;;;;4899688;29;20203;-90
2021/10/08 00:32:37;;;;;;;44.67;29.50;;;11.20;99.90;;;;;;4914662;29;20211;-88
2021/10/08 00:35:05;;;;;;;50.80;31.07;;;11.20;99.90;;;;;;4918782;29;20203;-89
2021/10/08 00:37:32;;;;;;;45.47;29.93;;;11.20;99.90;;;;;;4916445;29;20209;-89
2021/10/08 00:39:58;;;;;;;43.53;27.97;;;11.20;99.90;;;;;;4913927;29;20222;-90
2021/10/08 00:42:28;;;;;;;39.60;25.90;;;11.10;99.90;;;;;;4898440;29;20507;-90
2021/10/08 00:44:55;;;;;;;35.13;24.10;;;11.10;99.90;;;;;;4902176;29;20210;-89
2021/10/08 00:47:21;;;;;;;32.03;23.60;;;11.00;99.90;;;;;;4917231;29;20233;-88
2021/10/08 00:49:51;;;;;;;33.10;23.03;;;11.00;99.90;;;;;;4917860;29;20207;-89
2021/10/08 00:52:18;;;;;;;34.20;22.90;;;10.90;99.90;;;;;;4915082;29;20286;-90
2021/10/08 00:54:45;;;;;;;29.90;21.83;;;10.80;99.90;;;;;;4915057;29;20199;-88
2021/10/08 00:57:13;;;;;;;36.37;24.10;;;10.70;99.90;;;;;;4902532;29;20211;-90
2021/10/08 00:59:41;;;;;;;32.90;23.63;;;10.70;99.90;;;;;;4898839;29;20238;-90
2021/10/08 01:02:08;;;;;;;32.03;22.07;;;10.70;99.90;;;;;;4899805;29;20211;-91
2021/10/08 01:04:35;;;;;;;37.80;26.60;;;10.60;99.90;;;;;;4899918;29;20682;-89
2021/10/08 01:07:04;;;;;;;36.57;24.43;;;10.70;99.90;;;;;;4910210;29;20238;-89
2021/10/08 01:09:30;;;;;;;41.60;26.63;;;10.70;99.90;;;;;;4918630;29;20214;-89
2021/10/08 01:11:57;;;;;;;36.13;24.70;;;10.70;99.90;;;;;;4918834;29;20214;-90
2021/10/08 01:14:24;;;;;;;31.97;21.80;;;10.70;99.90;;;;;;4917785;29;20210;-92
2021/10/08 01:16:51;;;;;;;37.53;21.17;;;10.80;99.90;;;;;;4918348;29;20199;-89
2021/10/08 01:19:18;;;;;;;27.67;19.67;;;10.80;99.90;;;;;;4922541;29;20713;-88
2021/10/08 01:21:46;;;;;;;33.47;19.67;;;10.80;99.90;;;;;;4917907;29;20207;-87
2021/10/08 01:24:13;;;;;;;27.57;19.93;;;10.80;99.90;;;;;;4917250;29;20202;-88
2021/10/08 01:26:40;;;;;;;35.00;20.23;;;10.70;99.90;;;;;;4916275;29;20199;-88
2021/10/08 01:29:11;;;;;;;32.47;19.57;;;10.70;99.90;;;;;;4910820;29;20739;-86
2021/10/08 01:31:38;;;;;;;32.77;19.37;;;10.70;99.90;;;;;;4897682;29;20631;-89
2021/10/08 01:34:05;;;;;;;24.27;18.53;;;10.70;99.90;;;;;;4898108;29;20201;-88
2021/10/08 01:36:32;;;;;;;28.90;18.27;;;10.70;99.90;;;;;;4897011;29;20208;-89
2021/10/08 01:39:00;;;;;;;23.10;18.37;;;10.70;99.90;;;;;;4897776;29;20212;-88
2021/10/08 01:41:27;;;;;;;24.07;19.10;;;10.60;99.90;;;;;;4899312;29;20212;-90
2021/10/08 01:43:54;;;;;;;58.63;20.63;;;10.60;99.90;;;;;;4916591;29;20631;-90
2021/10/08 01:46:21;;;;;;;37.63;19.87;;;10.60;99.90;;;;;;4910671;29;20211;-88
2021/10/08 01:48:48;;;;;;;28.80;20.13;;;10.50;99.90;;;;;;4894639;29;20226;-88
2021/10/08 01:51:14;;;;;;;40.60;19.97;;;10.40;99.90;;;;;;4896825;29;20683;-87
2021/10/08 01:53:41;;;;;;;88.70;21.93;;;10.30;99.90;;;;;;4898038;29;20522;-89
2021/10/08 01:56:10;;;;;;;59.73;20.23;;;10.20;99.90;;;;;;4889896;29;20272;-89
2021/10/08 01:58:37;;;;;;;40.93;20.17;;;10.10;99.90;;;;;;4897640;29;20342;-87
2021/10/08 02:01:04;;;;;;;52.47;20.17;;;10.10;99.90;;;;;;4903353;29;20285;-88
2021/10/08 02:03:32;;;;;;;52.43;20.80;;;10.10;99.90;;;;;;4916748;29;20214;-89
2021/10/08 02:05:59;;;;;;;34.57;19.07;;;10.10;99.90;;;;;;4913937;29;20206;-88
2021/10/08 02:08:26;;;;;;;28.00;18.87;;;10.10;99.90;;;;;;4897179;29;20227;-87
2021/10/08 02:10:53;;;;;;;67.73;21.30;;;10.10;99.90;;;;;;4897198;29;20215;-89
2021/10/08 02:13:21;;;;;;;56.33;19.63;;;10.10;99.90;;;;;;4897246;29;20219;-90
2021/10/08 02:15:49;;;;;;;24.80;19.07;;;10.10;99.90;;;;;;4897143;29;20307;-89
2021/10/08 02:18:15;;;;;;;26.00;17.87;;;10.10;99.90;;;;;;4896095;29;20660;-90
2021/10/08 02:20:42;;;;;;;32.77;19.80;;;10.20;99.90;;;;;;4877311;29;20219;-88
2021/10/08 02:23:10;;;;;;;21.57;18.07;;;10.20;99.90;;;;;;4897153;29;20514;-89
2021/10/08 02:25:37;;;;;;;22.00;18.57;;;10.20;99.90;;;;;;4896649;29;20591;-90
2021/10/08 02:28:04;;;;;;;24.03;20.13;;;10.20;99.90;;;;;;4897062;29;20227;-90
2021/10/08 02:30:32;;;;;;;22.20;17.93;;;10.20;99.90;;;;;;4897060;29;20234;-89
2021/10/08 02:32:59;;;;;;;47.47;21.57;;;10.20;99.90;;;;;;4899370;29;20617;-89
2021/10/08 02:35:26;;;;;;;41.70;22.00;;;10.20;99.90;;;;;;4916339;29;20207;-89
2021/10/08 02:37:53;;;;;;;21.10;17.37;;;10.20;99.90;;;;;;4909286;29;20211;-89
2021/10/08 02:40:20;;;;;;;27.20;20.07;;;10.20;99.90;;;;;;4914563;29;20206;-89
2021/10/08 02:42:47;;;;;;;26.30;19.83;;;10.20;99.90;;;;;;4898020;29;20279;-88
2021/10/08 02:45:15;;;;;;;23.23;19.63;;;10.30;99.90;;;;;;4897791;29;20589;-89
2021/10/08 02:47:43;;;;;;;24.37;20.63;;;10.30;99.90;;;;;;4899297;29;20548;-89
2021/10/08 02:50:10;;;;;;;43.27;21.87;;;10.40;99.90;;;;;;4911548;29;20210;-89
2021/10/08 02:52:37;;;;;;;25.80;19.03;;;10.30;99.90;;;;;;4916313;29;20218;-90
2021/10/08 02:55:05;;;;;;;32.70;19.63;;;10.40;99.90;;;;;;4916342;29;20223;-90
2021/10/08 02:57:32;;;;;;;27.07;19.40;;;10.30;99.90;;;;;;4915899;29;20195;-90
2021/10/08 02:59:59;;;;;;;25.03;19.70;;;10.30;99.90;;;;;;4908548;29;20243;-90
2021/10/08 03:02:26;;;;;;;40.27;21.57;;;10.30;99.90;;;;;;4894094;29;20207;-90
2021/10/08 03:04:55;;;;;;;26.67;19.40;;;10.20;99.90;;;;;;4896635;29;20577;-90
2021/10/08 03:07:22;;;;;;;28.53;20.10;;;10.20;99.90;;;;;;4898523;29;20238;-90
2021/10/08 03:09:48;;;;;;;44.10;21.10;;;10.30;99.90;;;;;;4915638;29;20210;-88
2021/10/08 03:12:15;;;;;;;27.43;21.37;;;10.30;99.90;;;;;;4916001;29;20214;-88
2021/10/08 03:14:42;;;;;;;27.57;21.40;;;10.30;99.90;;;;;;4912934;29;20210;-91
2021/10/08 03:17:09;;;;;;;25.30;21.43;;;10.30;99.90;;;;;;4896358;29;20207;-91
2021/10/08 03:19:36;;;;;;;35.03;23.70;;;10.30;99.90;;;;;;4896517;29;20908;-91
2021/10/08 03:22:04;;;;;;;25.27;20.47;;;10.30;99.90;;;;;;4896300;29;20212;-90
2021/10/08 03:24:31;;;;;;;34.73;21.13;;;10.30;99.90;;;;;;4896034;29;20199;-89
2021/10/08 03:26:59;;;;;;;58.07;24.17;;;10.30;99.90;;;;;;4896551;29;20230;-89
2021/10/08 03:29:26;;;;;;;44.43;21.13;;;10.20;99.90;;;;;;4896039;29;20294;-89
2021/10/08 03:31:53;;;;;;;40.90;23.67;;;10.30;99.90;;;;;;4907056;29;20210;-89
2021/10/08 03:34:19;;;;;;;26.17;20.63;;;10.30;99.90;;;;;;4915329;29;20233;-89
2021/10/08 03:36:48;;;;;;;26.73;19.17;;;10.20;99.90;;;;;;4907182;29;20226;-87
2021/10/08 03:39:20;;;;;;;25.37;19.63;;;10.20;99.90;;;;;;4915811;29;20202;-88
2021/10/08 03:41:47;;;;;;;25.03;19.03;;;10.20;99.90;;;;;;4915035;29;20206;-89
2021/10/08 03:44:15;;;;;;;24.30;18.80;;;10.20;99.90;;;;;;4914633;29;20233;-87
2021/10/08 03:46:45;;;;;;;23.23;18.40;;;10.20;99.90;;;;;;4909221;29;20224;-87
2021/10/08 03:49:14;;;;;;;30.20;20.07;;;10.30;99.90;;;;;;4914150;29;20252;-88
2021/10/08 03:51:42;;;;;;;29.77;20.03;;;10.30;99.90;;;;;;4917804;29;20266;-88
2021/10/08 03:54:09;;;;;;;30.63;19.37;;;10.20;99.90;;;;;;4918621;29;20214;-87
2021/10/08 03:56:38;;;;;;;21.37;18.00;;;10.30;99.90;;;;;;4902431;29;20227;-88
2021/10/08 03:59:05;;;;;;;24.07;17.70;;;10.20;99.90;;;;;;4899570;29;20325;-88
2021/10/08 04:01:36;;;;;;;29.83;21.03;;;10.20;99.90;;;;;;4900106;29;20226;-86
2021/10/08 04:04:04;;;;;;;23.70;18.07;;;10.20;99.90;;;;;;4900379;29;20267;-89
2021/10/08 04:06:31;;;;;;;20.20;16.90;;;10.20;99.90;;;;;;4899826;29;20592;-89
2021/10/08 04:08:58;;;;;;;28.57;18.67;;;10.20;99.90;;;;;;4900504;29;20239;-90
2021/10/08 04:11:25;;;;;;;19.97;16.90;;;10.10;99.90;;;;;;4900415;29;20222;-89
2021/10/08 04:13:53;;;;;;;43.70;19.97;;;10.10;99.90;;;;;;4898205;29;20312;-88
2021/10/08 04:16:20;;;;;;;27.00;18.73;;;10.00;99.90;;;;;;4899182;29;20231;-87
2021/10/08 04:18:47;;;;;;;20.97;17.77;;;9.90;99.90;;;;;;4899994;29;20206;-88
2021/10/08 04:21:14;;;;;;;33.33;20.07;;;9.90;99.90;;;;;;4905515;29;20191;-89
2021/10/08 04:23:41;;;;;;;20.33;17.23;;;9.90;99.90;;;;;;4899606;29;20222;-88
2021/10/08 04:26:08;;;;;;;20.93;18.23;;;9.90;99.90;;;;;;4908945;29;20214;-87
2021/10/08 04:28:35;;;;;;;25.37;18.57;;;9.80;99.90;;;;;;4917680;29;20222;-88
2021/10/08 04:31:04;;;;;;;23.20;19.27;;;9.80;99.90;;;;;;4918088;29;20202;-88
2021/10/08 04:33:31;;;;;;;20.67;16.97;;;9.90;99.90;;;;;;4917561;29;20206;-87
2021/10/08 04:36:00;;;;;;;18.50;16.53;;;9.90;99.90;;;;;;4903447;29;20567;-87
2021/10/08 04:38:28;;;;;;;19.03;16.67;;;9.80;99.90;;;;;;4907328;29;20277;-88
2021/10/08 04:40:56;;;;;;;44.27;22.27;;;9.80;99.90;;;;;;4917697;29;20634;-88
2021/10/08 04:43:23;;;;;;;23.33;20.37;;;9.80;99.90;;;;;;4917893;29;20250;-88
2021/10/08 04:45:50;;;;;;;21.87;19.43;;;9.80;99.90;;;;;;4918081;29;20218;-87
2021/10/08 04:48:18;;;;;;;18.90;16.90;;;9.80;99.90;;;;;;4905625;29;20227;-86
2021/10/08 04:50:45;;;;;;;23.53;19.77;;;9.70;99.90;;;;;;4898904;29;20220;-89
2021/10/08 04:53:16;;;;;;;19.90;17.77;;;9.70;99.90;;;;;;4898811;29;20219;-89
2021/10/08 04:55:44;;;;;;;18.53;16.07;;;9.70;99.90;;;;;;4898222;29;20219;-88
2021/10/08 04:58:11;;;;;;;18.33;16.40;;;9.70;99.90;;;;;;4898662;29;20219;-88
2021/10/08 05:00:39;;;;;;;21.60;18.23;;;9.70;99.90;;;;;;4898453;29;20541;-88
2021/10/08 05:03:10;;;;;;;20.53;16.67;;;9.70;99.90;;;;;;4897794;29;20612;-88
2021/10/08 05:05:38;;;;;;;20.30;17.30;;;9.70;99.90;;;;;;4898507;29;20211;-87
2021/10/08 05:08:06;;;;;;;27.60;19.13;;;9.80;99.90;;;;;;4915230;29;20238;-87
2021/10/08 05:10:34;;;;;;;23.17;17.80;;;9.80;99.90;;;;;;4912630;29;20222;-88
2021/10/08 05:13:00;;;;;;;17.17;15.37;;;9.80;99.90;;;;;;4895259;29;20638;-87
2021/10/08 05:15:27;;;;;;;22.33;18.43;;;9.80;99.90;;;;;;4895336;29;20218;-90
2021/10/08 05:17:54;;;;;;;24.30;19.20;;;9.80;99.90;;;;;;4899042;29;20222;-88
2021/10/08 05:20:21;;;;;;;22.97;18.63;;;9.80;99.90;;;;;;4898418;29;20218;-87
2021/10/08 05:22:49;;;;;;;23.10;18.63;;;9.70;99.90;;;;;;4907975;29;20218;-88
2021/10/08 05:25:16;;;;;;;23.47;18.10;;;9.70;99.90;;;;;;4915808;29;20207;-89
2021/10/08 05:27:43;;;;;;;21.00;18.53;;;9.70;99.90;;;;;;4915410;29;20199;-89
2021/10/08 05:30:12;;;;;;;23.47;18.00;;;9.60;99.90;;;;;;4917522;29;20214;-89
2021/10/08 05:32:39;;;;;;;20.67;18.20;;;9.50;99.90;;;;;;4917176;29;20233;-87
2021/10/08 05:35:07;;;;;;;22.60;19.30;;;9.50;99.90;;;;;;4917557;29;20214;-88
2021/10/08 05:37:34;;;;;;;31.30;20.37;;;9.40;99.90;;;;;;4917477;29;20211;-89
2021/10/08 05:40:02;;;;;;;68.23;21.47;;;9.40;99.90;;;;;;4912071;29;20200;-89
2021/10/08 05:42:29;;;;;;;22.47;20.07;;;9.30;99.90;;;;;;4898536;29;20932;-86
2021/10/08 05:44:56;;;;;;;63.30;21.43;;;9.30;99.90;;;;;;4898651;29;20259;-89
2021/10/08 05:47:23;;;;;;;38.23;18.67;;;9.30;99.90;;;;;;4898491;29;20624;-89
2021/10/08 05:49:50;;;;;;;22.50;19.43;;;9.30;99.90;;;;;;4898280;29;20242;-89
2021/10/08 05:52:17;;;;;;;28.50;20.87;;;9.30;99.90;;;;;;4903933;29;20190;-89
2021/10/08 05:54:44;;;;;;;21.33;19.07;;;9.30;99.90;;;;;;4897984;29;20214;-87
2021/10/08 05:57:12;;;;;;;48.70;21.53;;;9.40;99.90;;;;;;4897208;29;20207;-90
2021/10/08 05:59:41;;;;;;;20.43;18.30;;;9.40;99.90;;;;;;4897122;29;20246;-86
2021/10/08 06:02:08;;;;;;;20.23;17.80;;;9.40;99.90;;;;;;4897666;29;20234;-88
2021/10/08 06:04:35;;;;;;;20.00;17.90;;;9.40;99.90;;;;;;4897476;29;20203;-88
2021/10/08 06:07:01;;;;;;;18.37;16.47;;;9.40;99.90;;;;;;4915265;29;20253;-88
2021/10/08 06:09:28;;;;;;;26.07;17.80;;;9.40;99.90;;;;;;4915924;29;21004;-88
2021/10/08 06:11:55;;;;;;;35.90;19.77;;;9.40;99.90;;;;;;4916040;29;20206;-88
2021/10/08 06:14:23;;;;;;;21.20;18.20;;;9.50;99.90;;;;;;4915589;29;20222;-88
2021/10/08 06:16:50;;;;;;;23.50;19.00;;;9.50;99.90;;;;;;4916096;29;20206;-89
2021/10/08 06:19:17;;;;;;;23.57;20.30;;;9.50;99.90;;;;;;4916161;29;20225;-89
2021/10/08 06:21:44;;;;;;;20.87;18.17;;;9.50;99.90;;;;;;4915611;29;20567;-90
2021/10/08 06:24:11;;;;;;;23.10;19.90;;;9.50;99.90;;;;;;4913652;29;20203;-90
2021/10/08 06:26:38;;;;;;;22.00;19.57;;;9.50;99.90;;;;;;4915457;29;20638;-91
2021/10/08 06:29:04;;;;;;;29.13;17.97;;;9.50;99.90;;;;;;4899333;29;20341;-89
2021/10/08 06:31:33;;;;;;;20.83;18.63;;;9.50;99.90;;;;;;4915780;29;20884;-89
2021/10/08 06:33:59;;;;;;;22.20;18.80;;;9.40;99.90;;;;;;4894550;29;20271;-90
2021/10/08 06:36:26;;;;;;;24.67;20.33;;;9.40;99.90;;;;;;4897143;29;20206;-90
2021/10/08 06:38:53;;;;;;;21.80;18.40;;;9.40;99.90;;;;;;4894804;29;20206;-88
2021/10/08 06:41:20;;;;;;;21.63;18.70;;;9.40;99.90;;;;;;4894663;29;20664;-88
2021/10/08 06:43:47;;;;;;;23.73;18.57;;;9.40;99.90;;;;;;4894041;29;20211;-88
2021/10/08 06:46:34;;;;;;;18.57;16.20;;;9.40;99.90;;;;;;4892197;29;20218;-92
2021/10/08 06:49:01;;;;;;;21.10;16.30;;;9.40;99.90;;;;;;4896785;29;20227;-88
2021/10/08 06:51:28;;;;;;;17.73;15.83;;;9.40;99.90;;;;;;4897045;29;20252;-91
2021/10/08 06:53:55;;;;;;;18.60;15.73;;;9.40;99.90;;;;;;4897278;29;20211;-88
2021/10/08 06:56:21;;;;;;;30.87;17.63;;;9.40;99.90;;;;;;4896541;29;20227;-89
2021/10/08 06:58:48;;;;;;;20.70;16.30;;;9.40;99.90;;;;;;4896349;29;20239;-90
2021/10/08 07:01:15;;;;;;;21.57;16.13;;;9.40;99.90;;;;;;4909234;29;20218;-90
2021/10/08 07:03:44;;;;;;;30.63;18.27;;;9.50;99.90;;;;;;4891690;29;20195;-89
2021/10/08 07:06:11;;;;;;;19.37;16.17;;;9.50;99.90;;;;;;4899397;29;20599;-89
2021/10/08 07:08:37;;;;;;;18.33;16.30;;;9.50;99.90;;;;;;4896739;29;20230;-88
2021/10/08 07:11:04;;;;;;;19.57;16.40;;;9.50;99.90;;;;;;4897530;29;20214;-88
2021/10/08 07:13:31;;;;;;;20.40;16.83;;;9.60;99.90;;;;;;4897383;29;20210;-87
2021/10/08 07:15:59;;;;;;;21.60;17.37;;;9.60;99.90;;;;;;4915829;29;20202;-89
2021/10/08 07:18:33;;;;;;;26.83;18.90;;;9.70;99.90;;;;;;4914440;29;20199;-89
2021/10/08 07:21:03;;;;;;;24.57;17.93;;;9.70;99.90;;;;;;4896658;29;20219;-88
2021/10/08 07:23:30;;;;;;;30.00;20.27;;;9.70;99.90;;;;;;4902719;29;20580;-88
2021/10/08 07:25:57;;;;;;;23.53;17.97;;;9.80;99.90;;;;;;4910400;29;20207;-89
2021/10/08 07:28:24;;;;;;;18.90;16.07;;;9.80;99.90;;;;;;4915340;29;20211;-89
2021/10/08 07:30:51;;;;;;;23.77;18.20;;;9.80;99.90;;;;;;4914550;29;20218;-89
2021/10/08 07:33:18;;;;;;;40.23;20.73;;;9.80;99.90;;;;;;4915198;29;20211;-89
2021/10/08 07:35:45;;;;;;;29.53;19.87;;;9.80;99.90;;;;;;4914815;29;20610;-89
2021/10/08 07:38:13;;;;;;;26.30;19.97;;;9.80;99.90;;;;;;4915287;29;20220;-90
2021/10/08 07:40:40;;;;;;;26.83;20.53;;;9.90;99.90;;;;;;4915044;29;20218;-88
2021/10/08 07:43:07;;;;;;;28.77;21.30;;;10.00;99.90;;;;;;4914770;29;20213;-89
2021/10/08 07:45:34;;;;;;;26.97;19.83;;;10.00;99.90;;;;;;4902697;29;20811;-89
2021/10/08 07:48:01;;;;;;;29.20;21.37;;;10.10;99.90;;;;;;4894657;29;20234;-89
2021/10/08 07:50:28;;;;;;;29.53;20.87;;;10.20;99.90;;;;;;4894942;29;20238;-89
2021/10/08 07:52:54;;;;;;;42.93;25.47;;;10.30;99.90;;;;;;4893740;29;20330;-89
2021/10/08 07:55:23;;;;;;;31.10;22.13;;;10.30;99.90;;;;;;4895741;29;20226;-89
2021/10/08 07:57:50;;;;;;;32.97;23.13;;;10.30;99.90;;;;;;4896185;29;20219;-89
2021/10/08 08:00:17;;;;;;;34.27;22.70;;;10.30;99.90;;;;;;4896139;29;20235;-90
2021/10/08 08:02:43;;;;;;;34.33;24.43;;;10.30;99.90;;;;;;4899250;29;20207;-89
2021/10/08 08:05:11;;;;;;;30.47;21.67;;;10.30;99.90;;;;;;4914720;29;20257;-89
2021/10/08 08:07:38;;;;;;;29.57;21.47;;;10.40;99.90;;;;;;4912023;29;20199;-90
2021/10/08 08:10:06;;;;;;;36.77;25.40;;;10.50;99.90;;;;;;4913795;29;20226;-88
2021/10/08 08:12:35;;;;;;;50.77;26.43;;;10.60;99.90;;;;;;4912012;29;20208;-90
2021/10/08 08:15:02;;;;;;;49.50;25.13;;;10.70;99.90;;;;;;4897344;29;20207;-90
2021/10/08 08:17:29;;;;;;;39.93;26.63;;;10.70;99.90;;;;;;4896172;29;20243;-89
2021/10/08 08:19:56;;;;;;;38.27;24.97;;;10.70;99.90;;;;;;4895849;29;20218;-90
2021/10/08 08:22:22;;;;;;;41.63;27.20;;;10.80;99.90;;;;;;4896338;29;20207;-90
2021/10/08 08:24:49;;;;;;;49.30;27.80;;;10.80;99.90;;;;;;4895869;29;20211;-89
2021/10/08 08:27:16;;;;;;;55.07;27.30;;;10.90;99.90;;;;;;4896277;29;20211;-87
2021/10/08 08:29:44;;;;;;;44.90;28.10;;;10.80;99.90;;;;;;4895849;29;20226;-88
2021/10/08 08:32:11;;;;;;;38.03;26.07;;;10.90;99.90;;;;;;4895952;29;20210;-89
2021/10/08 08:34:38;;;;;;;60.20;31.63;;;10.90;99.90;;;;;;4896083;29;20215;-89
2021/10/08 08:37:05;;;;;;;41.67;28.17;;;11.10;99.90;;;;;;4897171;29;20203;-90
2021/10/08 08:39:34;;;;;;;48.77;28.93;;;11.10;99.90;;;;;;4910219;29;20211;-89
2021/10/08 08:42:00;;;;;;;49.70;28.57;;;11.20;99.90;;;;;;4919407;29;20615;-89
2021/10/08 08:44:27;;;;;;;45.90;29.43;;;11.20;99.90;;;;;;4919086;29;20194;-89
2021/10/08 08:46:59;;;;;;;56.40;32.13;;;11.30;99.90;;;;;;4915394;29;20231;-90
2021/10/08 08:49:26;;;;;;;59.33;32.57;;;11.30;99.90;;;;;;4899919;29;20242;-90
2021/10/08 08:51:53;;;;;;;66.70;32.97;;;11.40;99.90;;;;;;4899706;29;20218;-91
2021/10/08 08:54:21;;;;;;;66.20;33.57;;;11.50;99.90;;;;;;4904679;29;20212;-89
2021/10/08 08:56:48;;;;;;;62.47;32.07;;;11.50;99.90;;;;;;4900879;29;20320;-90
2021/10/08 08:59:15;;;;;;;48.30;31.67;;;11.50;99.90;;;;;;4896490;29;21067;-91
2021/10/08 09:02:02;;;;;;;58.57;33.23;;;11.60;99.90;;;;;;4896671;29;20212;-90
2021/10/08 09:04:30;;;;;;;53.20;33.13;;;11.60;99.90;;;;;;4900070;29;20218;-89
2021/10/08 09:06:57;;;;;;;57.40;33.73;;;11.60;99.90;;;;;;4916256;29;20211;-89
2021/10/08 09:09:25;;;;;;;62.63;37.40;;;11.70;99.90;;;;;;4916025;29;20226;-90
2021/10/08 09:11:55;;;;;;;59.03;34.47;;;11.70;99.90;;;;;;4916853;29;20199;-90
2021/10/08 09:14:24;;;;;;;48.80;31.27;;;11.70;99.90;;;;;;4916865;29;20217;-91
2021/10/08 09:17:08;;;;;;;55.13;32.73;;;11.80;99.90;;;;;;4907654;29;20219;-92
2021/10/08 09:19:52;;;;;;;48.57;30.37;;;11.90;99.90;;;;;;4894299;29;20211;-91
2021/10/08 09:22:21;;;;;;;61.00;33.20;;;11.90;99.90;;;;;;4895538;29;20226;-90
2021/10/08 09:24:48;;;;;;;62.70;35.53;;;12.00;99.90;;;;;;4897482;29;20499;-88
2021/10/08 09:27:19;;;;;;;46.13;30.43;;;12.10;99.90;;;;;;4916956;29;20225;-89
2021/10/08 09:29:51;;;;;;;53.73;32.47;;;12.20;99.90;;;;;;4916477;29;20238;-88
2021/10/08 09:32:22;;;;;;;57.63;34.27;;;12.30;99.90;;;;;;4916887;29;20225;-89
2021/10/08 09:34:49;;;;;;;52.50;34.23;;;12.40;99.90;;;;;;4915217;29;20210;-87
2021/10/08 09:37:18;;;;;;;61.30;35.93;;;12.40;99.90;;;;;;4914672;29;20206;-87
2021/10/08 09:39:50;;;;;;;60.17;36.23;;;12.50;99.90;;;;;;4917114;29;20266;-90
2021/10/08 09:42:19;;;;;;;52.83;33.53;;;12.40;99.90;;;;;;4901464;29;20211;-89
2021/10/08 09:44:48;;;;;;;43.30;29.83;;;12.50;99.90;;;;;;4897854;29;20214;-91
2021/10/08 09:47:17;;;;;;;46.77;29.57;;;12.60;99.90;;;;;;4897911;29;20211;-90
2021/10/08 09:49:47;;;;;;;42.93;28.90;;;12.60;99.90;;;;;;4897633;29;20242;-90
2021/10/08 09:52:26;;;;;;;42.87;30.10;;;12.70;99.90;;;;;;4898326;29;20205;-91
2021/10/08 09:54:55;;;;;;;40.53;29.23;;;12.80;99.90;;;;;;4901570;29;20564;-90
2021/10/08 09:57:22;;;;;;;44.37;31.13;;;13.00;99.90;;;;;;4916527;29;20215;-92
2021/10/08 09:59:50;;;;;;;48.67;33.73;;;13.10;99.90;;;;;;4916548;29;20676;-91
2021/10/08 10:02:18;;;;;;;43.00;31.33;;;13.20;99.90;;;;;;4917024;29;20211;-92
2021/10/08 10:04:52;;;;;;;39.83;29.30;;;13.20;99.90;;;;;;4916949;29;20380;-93
2021/10/08 10:07:21;;;;;;;38.47;27.30;;;13.30;99.90;;;;;;4918626;29;20288;-94
2021/10/08 10:09:48;;;;;;;41.90;30.43;;;13.40;99.90;;;;;;4918529;29;20235;-88
2021/10/08 10:12:16;;;;;;;39.67;29.33;;;13.40;99.90;;;;;;4918077;29;20210;-94
2021/10/08 10:14:45;;;;;;;31.07;24.23;;;13.50;99.90;;;;;;4899798;29;20211;-95
2021/10/08 10:17:14;;;;;;;37.80;28.00;;;13.80;99.90;;;;;;4904747;29;20254;-95
2021/10/08 10:19:45;;;;;;;32.17;26.27;;;13.90;99.90;;;;;;4918642;29;20198;-94
2021/10/08 10:22:16;;;;;;;33.47;24.90;;;13.90;99.90;;;;;;4918183;29;20262;-93
2021/10/08 10:24:44;;;;;;;30.30;22.07;;;14.00;99.90;;;;;;4915502;29;20206;-94
2021/10/08 10:27:12;;;;;;;30.57;23.80;;;14.10;99.90;;;;;;4930915;29;20213;-96
2021/10/08 10:29:40;;;;;;;27.50;22.60;;;14.20;99.90;;;;;;4916996;29;20226;-92
2021/10/08 10:32:08;;;;;;;28.87;22.27;;;14.30;99.90;;;;;;4916467;29;20217;-93
2021/10/08 10:34:36;;;;;;;28.73;21.63;;;14.40;99.90;;;;;;4901819;29;20769;-94
2021/10/08 10:37:04;;;;;;;28.80;21.63;;;14.60;99.90;;;;;;4896720;29;20267;-94
2021/10/08 10:39:33;;;;;;;26.53;20.70;;;14.60;99.90;;;;;;4897027;29;20619;-96
2021/10/08 10:42:16;;;;;;;26.43;21.13;;;14.70;99.90;;;;;;4897764;29;20211;-96
2021/10/08 10:45:11;;;;;;;27.53;21.83;;;14.90;99.90;;;;;;4897395;29;20219;-93
2021/10/08 10:47:39;;;;;;;27.00;21.10;;;15.00;99.90;;;;;;4895068;29;20226;-94
2021/10/08 10:50:15;;;;;;;26.40;21.93;;;15.20;99.90;;;;;;4898120;29;20317;-96
2021/10/08 10:52:51;;;;;;;29.00;22.97;;;15.40;99.90;;;;;;4898221;29;20329;-96
2021/10/08 10:55:21;;;;;;;29.45;23.13;;;15.50;99.90;;;;;;4909238;29;20238;-96
2021/10/08 10:58:09;;;;;;;29.93;23.50;;;15.70;99.90;;;;;;4916682;29;20209;-91
2021/10/08 11:00:44;;;;;;;31.07;23.40;;;15.80;99.90;;;;;;4915548;29;20202;-93
2021/10/08 11:03:17;;;;;;;29.33;23.00;;;15.90;99.90;;;;;;4913491;29;20301;-94
2021/10/08 11:06:09;;;;;;;30.33;23.37;;;15.90;99.90;;;;;;4901090;29;20578;-95
2021/10/08 11:08:37;;;;;;;30.65;24.02;;;16.00;99.90;;;;;;4899481;29;20207;-95
2021/10/08 11:11:19;;;;;;;27.33;21.17;;;16.20;99.90;;;;;;4897355;29;20231;-95
2021/10/08 11:13:49;;;;;;;27.80;21.73;;;16.40;99.90;;;;;;4896293;29;20242;-91
2021/10/08 11:16:30;;;;;;;29.30;23.35;;;16.50;99.90;;;;;;4905867;29;20225;-92
2021/10/08 11:18:57;;;;;;;26.40;21.63;;;16.50;99.90;;;;;;4916238;29;20230;-95
2021/10/08 11:21:49;;;;;;;31.25;23.27;;;16.60;99.90;;;;;;4915069;29;20195;-92
2021/10/08 11:24:18;;;;;;;25.77;21.42;;;16.80;99.90;;;;;;4906876;29;20274;-94
2021/10/08 11:26:54;;;;;;;27.17;20.45;;;16.90;99.90;;;;;;4897305;29;20218;-96
2021/10/08 11:29:23;;;;;;;27.23;22.33;;;17.00;99.90;;;;;;4897585;29;20196;-96
2021/10/08 11:32:03;;;;;;;29.13;22.38;;;17.10;99.90;;;;;;4897128;29;20231;-93
2021/10/08 11:34:30;;;;;;;29.40;23.70;;;17.20;99.90;;;;;;4898108;29;20215;-90
2021/10/08 11:36:58;;;;;;;28.48;21.23;;;17.20;99.90;;;;;;4897690;29;20207;-95
2021/10/08 11:39:26;;;;;;;31.02;23.90;;;17.20;99.90;;;;;;4928931;23;20246;-94
2021/10/08 11:42:03;;;;;;;28.55;21.73;;;17.30;99.90;;;;;;4935591;29;20197;-94
2021/10/08 11:44:33;;;;;;;30.48;20.55;;;17.40;99.90;;;;;;4936066;29;20224;-96
2021/10/08 11:47:15;;;;;;;28.58;21.50;;;17.50;99.90;;;;;;4942051;29;20256;-93
2021/10/08 11:49:51;;;;;;;26.63;21.38;;;17.60;99.90;;;;;;4945569;29;20297;-93
2021/10/08 11:52:18;;;;;;;25.55;20.52;;;17.60;99.90;;;;;;4945822;29;20201;-93
2021/10/08 11:54:45;;;;;;;24.77;20.42;;;17.70;99.90;;;;;;4940144;29;20221;-96
2021/10/08 11:57:13;;;;;;;31.48;22.10;;;17.70;99.90;;;;;;4958331;28;20193;-93
2021/10/08 11:59:55;;;;;;;25.38;19.50;;;17.60;99.90;;;;;;4928288;29;20251;-90
2021/10/08 12:02:22;;;;;;;25.33;18.58;;;17.60;99.90;;;;;;4937020;29;20590;-90
2021/10/08 12:04:57;;;;;;;23.38;18.02;;;17.70;99.90;;;;;;4933895;29;20620;-92
2021/10/08 12:07:25;;;;;;;22.27;18.02;;;17.70;99.90;;;;;;4928521;29;20213;-88
2021/10/08 12:10:08;;;;;;;24.20;16.33;;;17.70;99.90;;;;;;4914010;29;20221;-89
2021/10/08 12:12:36;;;;;;;22.00;16.88;;;17.70;99.90;;;;;;4917782;29;20246;-90
2021/10/08 12:15:04;;;;;;;22.70;17.75;;;17.70;99.90;;;;;;4919407;29;20211;-86
2021/10/08 12:17:31;;;;;;;22.70;18.58;;;17.70;99.90;;;;;;4923541;29;20217;-92
2021/10/08 12:19:58;;;;;;;18.45;15.60;;;17.80;99.90;;;;;;4937345;29;20229;-89
2021/10/08 12:22:26;;;;;;;22.83;16.92;;;17.80;99.90;;;;;;4928889;29;20535;-90
2021/10/08 12:25:05;;;;;;;22.70;16.75;;;17.80;99.90;;;;;;4918288;29;20214;-90
2021/10/08 12:27:33;;;;;;;22.52;15.95;;;17.80;99.90;;;;;;4918916;29;20514;-94
2021/10/08 12:30:01;;;;;;;19.08;14.30;;;17.80;99.90;;;;;;4916832;29;20218;-90
2021/10/08 12:32:28;;;;;;;22.48;16.52;;;17.90;99.90;;;;;;4917891;29;20198;-92
2021/10/08 12:34:56;;;;;;;19.48;15.35;;;17.90;99.90;;;;;;4920892;29;20824;-93
2021/10/08 12:37:29;;;;;;;20.27;15.80;;;17.90;99.90;;;;;;4937443;29;20210;-89